Time;durP1;ratioP1;P1;durP2;ratioP2;P2;SDS_P1;SDS_P2;PMS_P1;PMS_P2;Temp;Humidity;BMP_temperature;BMP_pressure;BME280_temperature;BME280_humidity;BME280_pressure;Samples;Min_cycle;Max_cycle;Signal;HPM_P1;HPM_P2
2022/09/07 00:01:15;;;;;;;17.70;6.78;;;20.00;99.90;;;;;;4946312;28;213644;-71
2022/09/07 00:03:41;;;;;;;14.20;6.43;;;19.90;99.90;;;;;;4993458;28;20059;-68
2022/09/07 00:06:10;;;;;;;11.07;6.53;;;19.80;99.90;;;;;;4949056;28;209998;-69
2022/09/07 00:08:37;;;;;;;14.85;7.10;;;19.70;99.90;;;;;;4998894;28;20058;-69
2022/09/07 00:11:06;;;;;;;13.18;6.90;;;19.60;99.90;;;;;;4955065;28;207164;-69
2022/09/07 00:13:35;;;;;;;10.73;6.70;;;19.60;99.90;;;;;;4987915;28;20067;-68
2022/09/07 00:16:08;;;;;;;13.93;6.75;;;19.60;99.90;;;;;;4936396;28;209474;-69
2022/09/07 00:18:34;;;;;;;16.70;7.07;;;19.50;99.90;;;;;;4981669;28;20507;-69
2022/09/07 00:21:06;;;;;;;14.75;7.20;;;19.50;99.90;;;;;;4935033;28;208360;-70
2022/09/07 00:23:33;;;;;;;14.60;6.63;;;19.40;99.90;;;;;;4990567;28;20069;-71
2022/09/07 00:26:05;;;;;;;15.02;6.97;;;19.30;99.90;;;;;;4933722;28;209764;-68
2022/09/07 00:28:32;;;;;;;12.55;7.15;;;19.30;99.90;;;;;;4979373;28;20054;-68
2022/09/07 00:30:59;;;;;;;17.42;7.95;;;19.30;99.90;;;;;;4935262;28;209893;-68
2022/09/07 00:33:25;;;;;;;13.20;7.13;;;19.30;99.90;;;;;;4987560;28;20058;-69
2022/09/07 00:35:51;;;;;;;10.68;7.03;;;19.20;99.90;;;;;;4939488;28;216105;-68
2022/09/07 00:38:17;;;;;;;13.30;7.60;;;19.20;99.90;;;;;;4985896;28;20077;-68
2022/09/07 00:40:43;;;;;;;12.77;7.28;;;19.20;99.90;;;;;;4933361;28;212321;-70
2022/09/07 00:43:28;;;;;;;14.57;7.80;;;19.10;99.90;;;;;;4944419;28;1128048;-68
2022/09/07 00:45:54;;;;;;;16.17;8.10;;;19.10;99.90;;;;;;4952980;28;207358;-69
2022/09/07 00:48:26;;;;;;;16.15;8.68;;;18.90;99.90;;;;;;4987235;28;20062;-69
2022/09/07 00:51:01;;;;;;;13.88;8.43;;;18.80;99.90;;;;;;4945990;28;210492;-68
2022/09/07 00:53:32;;;;;;;13.20;7.88;;;18.80;99.90;;;;;;4986326;28;20054;-69
2022/09/07 00:56:00;;;;;;;14.32;8.00;;;18.70;99.90;;;;;;4964068;28;207467;-69
2022/09/07 00:58:26;;;;;;;15.85;8.23;;;18.70;99.90;;;;;;4990864;28;20058;-69
2022/09/07 01:00:54;;;;;;;18.77;8.23;;;18.60;99.90;;;;;;4947203;28;209094;-70
2022/09/07 01:03:29;;;;;;;17.90;8.63;;;18.60;99.90;;;;;;4987460;28;20053;-70
2022/09/07 01:06:05;;;;;;;15.90;8.93;;;18.60;99.90;;;;;;4943041;28;210188;-69
2022/09/07 01:08:31;;;;;;;22.65;9.75;;;18.60;99.90;;;;;;4982661;28;20054;-71
2022/09/07 01:10:59;;;;;;;18.08;9.40;;;18.40;99.90;;;;;;4944253;28;207449;-72
2022/09/07 01:13:26;;;;;;;20.60;10.13;;;18.30;99.90;;;;;;4993610;28;20406;-71
2022/09/07 01:16:01;;;;;;;19.33;11.45;;;18.10;99.90;;;;;;4930199;28;210591;-72
2022/09/07 01:18:59;;;;;;;21.73;11.65;;;17.90;99.90;;;;;;4963072;28;20058;-72
2022/09/07 01:21:37;;;;;;;19.98;12.13;;;17.70;99.90;;;;;;4939622;28;210558;-71
2022/09/07 01:24:23;;;;;;;18.60;11.68;;;17.60;99.90;;;;;;4968502;28;20139;-69
2022/09/07 01:27:23;;;;;;;18.65;12.27;;;17.50;99.90;;;;;;4915787;28;209808;-70
2022/09/07 01:30:15;;;;;;;23.05;14.48;;;17.50;99.90;;;;;;4963290;28;20571;-70
2022/09/07 01:32:49;;;;;;;27.52;15.48;;;17.40;99.90;;;;;;4918539;28;213870;-71
2022/09/07 01:35:38;;;;;;;20.08;13.93;;;17.40;99.90;;;;;;4923135;28;210686;-70
2022/09/07 01:38:26;;;;;;;19.42;15.27;;;17.30;99.90;;;;;;4964420;28;20082;-69
2022/09/07 01:41:08;;;;;;;20.27;14.50;;;17.30;99.90;;;;;;4917046;28;210201;-69
2022/09/07 01:43:59;;;;;;;16.38;13.10;;;17.20;99.90;;;;;;4961918;28;20066;-69
2022/09/07 01:46:25;;;;;;;20.10;14.25;;;17.20;99.90;;;;;;4922882;28;209941;-69
2022/09/07 01:48:54;;;;;;;21.02;14.75;;;17.20;99.90;;;;;;4962321;28;20408;-70
2022/09/07 01:51:24;;;;;;;19.95;15.05;;;17.20;99.90;;;;;;4928997;28;210804;-70
2022/09/07 01:53:56;;;;;;;18.85;14.10;;;17.10;99.90;;;;;;4967032;28;20058;-69
2022/09/07 01:56:39;;;;;;;24.77;17.38;;;17.10;99.90;;;;;;4912595;28;210962;-69
2022/09/07 01:59:27;;;;;;;18.55;13.88;;;17.20;99.90;;;;;;4966684;28;20495;-69
2022/09/07 02:02:23;;;;;;;18.02;12.25;;;17.20;99.90;;;;;;4928217;28;209593;-70
2022/09/07 02:04:58;;;;;;;14.73;9.32;;;17.20;99.90;;;;;;4960373;28;20062;-70
2022/09/07 02:07:35;;;;;;;13.48;7.60;;;17.20;99.90;;;;;;4936045;28;217763;-70
2022/09/07 02:10:14;;;;;;;13.45;7.38;;;17.20;99.90;;;;;;4947828;28;215203;-69
2022/09/07 02:12:47;;;;;;;13.95;7.82;;;17.10;99.90;;;;;;4994218;28;20406;-69
2022/09/07 02:15:21;;;;;;;13.80;7.35;;;17.10;99.90;;;;;;4942735;28;210850;-69
2022/09/07 02:17:53;;;;;;;13.55;7.22;;;17.10;99.90;;;;;;4986616;28;20069;-70
2022/09/07 02:20:27;;;;;;;12.43;7.45;;;17.10;99.90;;;;;;4936714;28;208090;-71
2022/09/07 02:22:59;;;;;;;11.93;7.75;;;17.10;99.90;;;;;;4973063;28;20062;-71
2022/09/07 02:25:36;;;;;;;12.13;6.25;;;17.10;99.90;;;;;;4941493;28;207437;-72
2022/09/07 02:28:11;;;;;;;11.20;5.45;;;17.10;99.90;;;;;;4978309;28;20425;-73
2022/09/07 02:30:38;;;;;;;11.88;6.68;;;17.00;99.90;;;;;;4939214;28;209379;-72
2022/09/07 02:33:04;;;;;;;11.73;6.25;;;17.00;99.90;;;;;;4974036;28;20063;-72
2022/09/07 02:35:31;;;;;;;12.30;7.13;;;17.00;99.90;;;;;;4945246;28;205519;-73
2022/09/07 02:38:01;;;;;;;11.50;6.60;;;17.00;99.90;;;;;;4967093;28;20053;-73
2022/09/07 02:40:27;;;;;;;12.52;5.70;;;17.00;99.90;;;;;;4935047;28;206088;-73
2022/09/07 02:42:56;;;;;;;11.00;5.55;;;17.00;99.90;;;;;;4971546;28;20057;-73
2022/09/07 02:45:22;;;;;;;9.30;5.30;;;17.10;99.90;;;;;;4936602;28;208324;-73
2022/09/07 02:48:26;;;;;;;10.63;5.30;;;17.10;99.90;;;;;;4997182;28;20058;-73
2022/09/07 02:51:16;;;;;;;10.95;5.78;;;17.10;99.90;;;;;;4911938;28;215764;-73
2022/09/07 02:54:07;;;;;;;11.85;5.35;;;17.10;99.90;;;;;;4958032;28;20050;-72
2022/09/07 02:56:45;;;;;;;10.95;5.57;;;17.10;99.90;;;;;;4921417;28;211958;-73
2022/09/07 02:59:20;;;;;;;15.63;5.28;;;17.10;99.90;;;;;;4976025;28;20073;-73
2022/09/07 03:01:49;;;;;;;10.77;4.97;;;17.10;99.90;;;;;;4916474;28;205964;-72
2022/09/07 03:04:24;;;;;;;8.43;4.20;;;17.00;99.90;;;;;;4954208;28;20054;-73
2022/09/07 03:07:01;;;;;;;8.88;4.45;;;17.00;99.90;;;;;;4901935;28;207297;-73
2022/09/07 03:09:36;;;;;;;8.40;4.22;;;17.00;99.90;;;;;;4963442;28;20057;-73
2022/09/07 03:12:04;;;;;;;12.30;4.47;;;17.00;99.90;;;;;;4912722;28;206210;-73
2022/09/07 03:14:32;;;;;;;9.55;4.60;;;17.10;99.90;;;;;;4959819;28;20193;-73
2022/09/07 03:16:59;;;;;;;9.07;4.38;;;17.00;99.90;;;;;;4918695;28;207578;-73
2022/09/07 03:19:26;;;;;;;9.52;4.57;;;17.00;99.90;;;;;;4973800;28;20050;-73
2022/09/07 03:21:52;;;;;;;8.75;4.32;;;17.10;99.90;;;;;;4914845;28;213845;-72
2022/09/07 03:24:18;;;;;;;9.50;4.68;;;17.00;99.90;;;;;;4979958;28;20043;-72
2022/09/07 03:26:50;;;;;;;10.50;4.97;;;17.00;99.90;;;;;;4924157;28;203239;-72
2022/09/07 03:29:17;;;;;;;10.18;4.50;;;17.00;99.90;;;;;;4980114;28;20054;-73
2022/09/07 03:31:44;;;;;;;9.63;4.60;;;17.00;99.90;;;;;;4934861;28;205877;-73
2022/09/07 03:34:11;;;;;;;9.55;5.25;;;17.00;99.90;;;;;;4981148;28;20538;-72
2022/09/07 03:36:37;;;;;;;10.52;5.28;;;17.00;99.90;;;;;;4933885;28;210971;-70
2022/09/07 03:39:06;;;;;;;8.85;5.10;;;17.00;99.90;;;;;;4981049;28;20066;-70
2022/09/07 03:41:32;;;;;;;9.82;5.10;;;17.00;99.90;;;;;;4938297;28;212121;-71
2022/09/07 03:44:06;;;;;;;12.05;6.18;;;17.00;99.90;;;;;;4984292;28;20057;-72
2022/09/07 03:46:33;;;;;;;10.98;6.20;;;17.00;99.90;;;;;;4934321;28;213381;-72
2022/09/07 03:48:59;;;;;;;11.70;6.40;;;17.00;99.90;;;;;;4987985;28;20042;-71
2022/09/07 03:51:25;;;;;;;10.50;5.68;;;17.00;99.90;;;;;;4950615;28;211457;-71
2022/09/07 03:53:51;;;;;;;11.15;5.53;;;17.00;99.90;;;;;;4979379;28;20047;-72
2022/09/07 03:56:21;;;;;;;11.27;6.55;;;17.10;99.90;;;;;;4935122;28;217552;-71
2022/09/07 03:58:48;;;;;;;10.85;6.85;;;17.10;99.90;;;;;;4983696;28;20046;-73
2022/09/07 04:01:18;;;;;;;12.75;6.68;;;17.10;99.90;;;;;;4927672;28;214452;-71
2022/09/07 04:03:45;;;;;;;11.00;6.90;;;17.10;99.90;;;;;;4975815;28;20077;-71
2022/09/07 04:06:11;;;;;;;10.98;7.10;;;17.10;99.90;;;;;;4946163;28;211022;-72
2022/09/07 04:08:39;;;;;;;13.82;7.22;;;17.00;99.90;;;;;;4978887;28;20148;-71
2022/09/07 04:11:08;;;;;;;12.82;7.47;;;17.00;99.90;;;;;;4932286;28;209592;-72
2022/09/07 04:13:35;;;;;;;12.27;7.50;;;16.90;99.90;;;;;;4989854;28;20054;-72
2022/09/07 04:16:24;;;;;;;14.18;7.75;;;16.90;99.90;;;;;;4925883;28;211028;-72
2022/09/07 04:18:53;;;;;;;14.55;8.10;;;16.80;99.90;;;;;;4976905;28;20073;-72
2022/09/07 04:21:22;;;;;;;14.43;8.27;;;16.80;99.90;;;;;;4941392;28;211591;-72
2022/09/07 04:23:49;;;;;;;15.35;7.97;;;16.70;99.90;;;;;;4980342;28;20050;-73
2022/09/07 04:26:18;;;;;;;15.73;7.68;;;16.70;99.90;;;;;;4941955;28;210035;-72
2022/09/07 04:28:45;;;;;;;11.15;7.07;;;16.70;99.90;;;;;;4981767;28;20046;-71
2022/09/07 04:31:15;;;;;;;13.77;8.30;;;16.70;99.90;;;;;;4948940;28;210578;-71
2022/09/07 04:33:45;;;;;;;13.73;8.00;;;16.70;99.90;;;;;;4986445;28;20527;-70
2022/09/07 04:36:12;;;;;;;12.80;8.02;;;16.70;99.90;;;;;;4936633;28;212564;-72
2022/09/07 04:38:39;;;;;;;13.45;8.35;;;16.70;99.90;;;;;;4972831;28;20053;-71
2022/09/07 04:41:16;;;;;;;14.52;8.57;;;16.80;99.90;;;;;;4947655;28;198076;-72
2022/09/07 04:43:44;;;;;;;15.20;8.68;;;16.70;99.90;;;;;;4986184;28;20051;-71
2022/09/07 04:46:25;;;;;;;13.40;9.45;;;16.70;99.90;;;;;;4935691;28;208359;-70
2022/09/07 04:48:54;;;;;;;14.75;10.10;;;16.70;99.90;;;;;;4985241;28;20057;-71
2022/09/07 04:51:22;;;;;;;16.95;11.23;;;16.70;99.90;;;;;;4931594;28;206570;-73
2022/09/07 04:53:50;;;;;;;15.20;10.65;;;16.80;99.90;;;;;;4974393;28;20423;-71
2022/09/07 04:56:17;;;;;;;16.23;11.32;;;16.70;99.90;;;;;;4933887;28;206458;-71
2022/09/07 04:58:44;;;;;;;19.15;14.25;;;16.70;99.90;;;;;;4983798;28;20054;-71
2022/09/07 05:01:15;;;;;;;20.00;14.70;;;16.70;99.90;;;;;;4930687;28;207144;-72
2022/09/07 05:03:41;;;;;;;25.13;18.60;;;16.70;99.90;;;;;;4973484;28;20042;-71
2022/09/07 05:06:08;;;;;;;26.45;20.15;;;16.80;99.90;;;;;;4944727;28;207911;-71
2022/09/07 05:08:41;;;;;;;23.85;19.95;;;16.80;99.90;;;;;;4986575;28;20050;-72
2022/09/07 05:11:08;;;;;;;25.30;19.30;;;16.80;99.90;;;;;;4947834;28;210273;-72
2022/09/07 05:13:34;;;;;;;21.75;18.80;;;16.80;99.90;;;;;;4990846;28;20065;-73
2022/09/07 05:16:11;;;;;;;28.63;21.17;;;16.80;99.90;;;;;;4938440;28;211696;-72
2022/09/07 05:18:37;;;;;;;29.05;22.45;;;16.80;99.90;;;;;;4986790;28;20061;-72
2022/09/07 05:21:11;;;;;;;22.33;18.83;;;16.80;99.90;;;;;;4944992;28;207550;-72
2022/09/07 05:23:37;;;;;;;25.42;20.35;;;16.80;99.90;;;;;;4991763;28;20050;-71
2022/09/07 05:26:07;;;;;;;25.70;21.48;;;16.80;99.90;;;;;;4951717;28;213606;-73
2022/09/07 05:28:34;;;;;;;24.98;19.60;;;16.80;99.90;;;;;;4996243;28;20058;-74
2022/09/07 05:31:12;;;;;;;24.80;20.73;;;16.80;99.90;;;;;;4953822;28;206581;-73
2022/09/07 05:33:39;;;;;;;23.27;19.92;;;16.90;99.90;;;;;;4977765;28;20711;-71
2022/09/07 05:36:06;;;;;;;25.02;20.40;;;16.90;99.90;;;;;;4941011;28;209075;-72
2022/09/07 05:38:35;;;;;;;27.77;20.33;;;16.90;99.90;;;;;;4986420;28;20062;-72
2022/09/07 05:41:16;;;;;;;22.20;19.33;;;16.90;99.90;;;;;;4942303;28;201333;-71
2022/09/07 05:43:43;;;;;;;24.00;20.33;;;16.90;99.90;;;;;;4982989;28;20057;-72
2022/09/07 05:46:09;;;;;;;25.55;19.73;;;16.90;99.90;;;;;;4935368;28;209152;-72
2022/09/07 05:48:36;;;;;;;25.00;20.25;;;16.90;99.90;;;;;;4975449;28;20054;-72
2022/09/07 05:51:03;;;;;;;27.60;22.45;;;16.90;99.90;;;;;;4941127;28;216343;-72
2022/09/07 05:53:29;;;;;;;23.60;19.35;;;16.90;99.90;;;;;;4983562;28;20065;-71
2022/09/07 05:55:59;;;;;;;25.73;20.20;;;16.90;99.90;;;;;;4929975;28;112428;-75
2022/09/07 05:58:29;;;;;;;22.85;19.05;;;16.90;99.90;;;;;;4956183;28;20046;-72
2022/09/07 06:00:59;;;;;;;26.20;19.15;;;16.90;99.90;;;;;;4937217;28;205957;-72
2022/09/07 06:03:25;;;;;;;21.70;19.00;;;16.90;99.90;;;;;;4982330;28;20534;-73
2022/09/07 06:06:04;;;;;;;25.50;20.25;;;17.00;99.90;;;;;;4950931;28;206270;-73
2022/09/07 06:08:32;;;;;;;23.30;20.50;;;17.10;99.90;;;;;;4983077;28;20069;-72
2022/09/07 06:11:05;;;;;;;26.27;21.58;;;17.10;99.90;;;;;;4939042;28;209255;-73
2022/09/07 06:13:31;;;;;;;23.80;20.42;;;17.20;99.90;;;;;;4980520;28;20061;-72
2022/09/07 06:16:05;;;;;;;27.35;20.50;;;17.20;99.90;;;;;;4943578;28;207490;-72
2022/09/07 06:18:36;;;;;;;26.92;21.15;;;17.30;99.90;;;;;;4984497;28;20050;-72
2022/09/07 06:21:03;;;;;;;25.77;22.08;;;17.30;99.90;;;;;;4953028;28;209784;-73
2022/09/07 06:23:34;;;;;;;23.13;18.52;;;17.30;99.90;;;;;;4991406;28;20070;-73
2022/09/07 06:26:00;;;;;;;26.13;21.35;;;17.30;99.90;;;;;;4943748;28;216023;-73
2022/09/07 06:28:32;;;;;;;24.88;20.40;;;17.30;99.90;;;;;;4979130;28;20063;-73
2022/09/07 06:31:10;;;;;;;25.50;20.55;;;17.30;99.90;;;;;;4933881;28;206544;-72
2022/09/07 06:33:36;;;;;;;26.70;20.08;;;17.30;99.90;;;;;;4983067;28;20061;-72
2022/09/07 06:36:09;;;;;;;24.02;20.10;;;17.40;99.90;;;;;;4941229;28;208758;-72
2022/09/07 06:38:36;;;;;;;25.60;21.38;;;17.40;99.90;;;;;;4982269;28;20693;-72
2022/09/07 06:41:04;;;;;;;21.45;17.88;;;17.40;99.90;;;;;;4942198;28;224513;-72
2022/09/07 06:43:30;;;;;;;25.23;19.92;;;17.50;99.90;;;;;;4978757;28;20065;-73
2022/09/07 06:45:57;;;;;;;25.98;22.63;;;17.50;99.90;;;;;;4939732;28;208021;-73
2022/09/07 06:48:24;;;;;;;28.50;22.35;;;17.50;99.90;;;;;;4968444;28;20134;-72
2022/09/07 06:51:00;;;;;;;22.02;19.38;;;17.50;99.90;;;;;;4946714;28;209304;-73
2022/09/07 06:53:29;;;;;;;26.20;21.38;;;17.60;99.90;;;;;;4994426;28;20061;-73
2022/09/07 06:55:56;;;;;;;25.40;21.40;;;17.60;99.90;;;;;;4936758;28;212701;-72
2022/09/07 06:58:23;;;;;;;25.52;21.05;;;17.60;99.90;;;;;;4982743;28;20500;-72
2022/09/07 07:00:50;;;;;;;26.85;23.27;;;17.60;99.90;;;;;;4936881;28;209458;-73
2022/09/07 07:03:16;;;;;;;28.25;21.95;;;17.60;99.90;;;;;;4981339;28;20046;-72
2022/09/07 07:05:49;;;;;;;29.25;25.60;;;17.70;99.90;;;;;;4941666;28;209013;-72
2022/09/07 07:08:16;;;;;;;29.30;23.92;;;17.70;99.90;;;;;;4992801;28;20073;-72
2022/09/07 07:10:42;;;;;;;26.02;22.73;;;17.70;99.90;;;;;;4946892;28;210446;-72
2022/09/07 07:13:08;;;;;;;30.70;24.60;;;17.80;99.90;;;;;;4993951;28;20069;-72
2022/09/07 07:15:34;;;;;;;25.83;22.27;;;17.80;99.90;;;;;;4952631;28;206018;-72
2022/09/07 07:18:00;;;;;;;27.05;23.13;;;17.80;99.90;;;;;;4999264;28;20057;-72
2022/09/07 07:20:27;;;;;;;26.08;22.42;;;17.80;99.90;;;;;;4934347;28;209813;-72
2022/09/07 07:22:53;;;;;;;29.65;24.48;;;17.90;99.90;;;;;;4993106;28;20053;-72
2022/09/07 07:25:19;;;;;;;28.55;25.45;;;18.00;99.90;;;;;;4939416;28;208686;-72
2022/09/07 07:27:45;;;;;;;26.60;23.75;;;17.90;99.90;;;;;;4984049;28;20057;-72
2022/09/07 07:30:13;;;;;;;27.23;24.30;;;17.90;99.90;;;;;;4942504;28;209733;-72
2022/09/07 07:32:40;;;;;;;29.23;25.92;;;18.00;99.90;;;;;;4966389;28;20050;-72
2022/09/07 07:35:18;;;;;;;30.77;25.58;;;18.10;99.90;;;;;;4946805;28;210623;-72
2022/09/07 07:37:44;;;;;;;28.95;22.52;;;18.20;99.90;;;;;;4973569;28;20050;-72
2022/09/07 07:40:12;;;;;;;29.10;24.17;;;18.20;99.90;;;;;;4942055;28;213409;-72
2022/09/07 07:42:40;;;;;;;29.90;24.05;;;18.30;99.90;;;;;;4986531;28;20049;-71
2022/09/07 07:45:07;;;;;;;27.85;24.55;;;18.40;99.90;;;;;;4938441;28;210165;-71
2022/09/07 07:47:34;;;;;;;28.40;25.20;;;18.50;99.90;;;;;;4971042;28;20054;-71
2022/09/07 07:50:01;;;;;;;31.90;24.92;;;18.50;99.90;;;;;;4940532;28;238928;-70
2022/09/07 07:52:35;;;;;;;33.53;25.63;;;18.60;99.90;;;;;;4987379;28;20050;-71
2022/09/07 07:55:02;;;;;;;27.87;24.90;;;18.70;99.90;;;;;;4941257;28;215569;-71
2022/09/07 07:57:28;;;;;;;28.70;25.08;;;18.90;99.90;;;;;;4994284;28;20058;-71
2022/09/07 07:59:55;;;;;;;29.80;24.08;;;19.00;99.90;;;;;;4973040;28;210184;-71
2022/09/07 08:02:21;;;;;;;27.65;24.65;;;19.00;99.90;;;;;;4940313;28;205716;-71
2022/09/07 08:04:47;;;;;;;27.05;23.88;;;19.10;99.90;;;;;;4986296;28;20051;-71
2022/09/07 08:07:14;;;;;;;28.10;23.95;;;19.20;99.90;;;;;;4920454;28;206452;-71
2022/09/07 08:09:42;;;;;;;26.38;22.90;;;19.20;99.90;;;;;;4979404;28;20061;-71
2022/09/07 08:12:11;;;;;;;28.38;23.92;;;19.30;99.90;;;;;;4952729;28;212771;-71
2022/09/07 08:14:41;;;;;;;27.45;24.00;;;19.20;99.90;;;;;;4986412;28;20066;-71
2022/09/07 08:17:13;;;;;;;30.17;24.35;;;19.30;99.90;;;;;;4948691;28;214011;-71
2022/09/07 08:19:39;;;;;;;28.55;24.40;;;19.50;99.90;;;;;;4982650;28;20523;-71
2022/09/07 08:22:06;;;;;;;24.60;22.00;;;19.60;99.90;;;;;;4942415;28;208720;-71
2022/09/07 08:24:32;;;;;;;23.70;21.20;;;19.80;99.90;;;;;;4980995;28;20069;-71
2022/09/07 08:26:59;;;;;;;27.50;21.58;;;19.90;99.90;;;;;;4951795;28;209486;-71
2022/09/07 08:29:25;;;;;;;22.95;20.50;;;19.80;99.90;;;;;;4981258;28;20057;-71
2022/09/07 08:31:51;;;;;;;24.58;21.20;;;19.70;99.90;;;;;;4932093;28;206415;-71
2022/09/07 08:34:17;;;;;;;24.15;20.38;;;19.70;99.90;;;;;;4987191;28;20539;-71
2022/09/07 08:36:44;;;;;;;25.27;19.35;;;19.80;99.90;;;;;;4943722;28;211580;-72
2022/09/07 08:39:10;;;;;;;20.80;18.35;;;19.80;99.90;;;;;;4990579;28;20053;-72
2022/09/07 08:41:45;;;;;;;21.20;17.50;;;19.80;99.90;;;;;;4954664;28;212355;-72
2022/09/07 08:44:20;;;;;;;21.60;17.35;;;19.90;99.90;;;;;;4989962;28;20054;-72
2022/09/07 08:46:55;;;;;;;19.15;16.38;;;19.90;99.90;;;;;;4947363;28;210723;-72
2022/09/07 08:49:39;;;;;;;19.55;15.75;;;20.00;99.90;;;;;;4988777;28;20050;-71
2022/09/07 08:52:47;;;;;;;19.00;16.10;;;20.10;99.90;;;;;;4949394;28;208110;-72
2022/09/07 08:55:27;;;;;;;21.77;15.63;;;20.20;99.90;;;;;;4911102;28;205843;-71
2022/09/07 08:58:26;;;;;;;18.30;13.98;;;20.40;99.90;;;;;;4961627;28;20058;-72
2022/09/07 09:00:52;;;;;;;16.30;13.25;;;20.80;99.90;;;;;;4888700;29;206873;-72
2022/09/07 09:03:32;;;;;;;17.70;12.88;;;21.10;99.90;;;;;;4927740;29;20059;-72
2022/09/07 09:06:19;;;;;;;14.90;11.65;;;21.50;99.90;;;;;;4875921;29;168620;-72
2022/09/07 09:08:47;;;;;;;15.60;10.55;;;21.70;99.90;;;;;;4933927;29;20043;-72
2022/09/07 09:11:43;;;;;;;16.50;10.98;;;22.10;99.90;;;;;;4883531;29;90664;-72
2022/09/07 09:14:43;;;;;;;15.88;10.27;;;22.40;99.90;;;;;;4914048;29;20048;-72
2022/09/07 09:17:22;;;;;;;14.60;10.02;;;22.90;99.90;;;;;;4855968;29;210099;-73
2022/09/07 09:19:50;;;;;;;13.60;9.52;;;23.10;99.90;;;;;;4927103;29;20095;-72
2022/09/07 09:22:20;;;;;;;14.90;9.70;;;23.40;99.90;;;;;;4868132;29;206199;-72
2022/09/07 09:24:59;;;;;;;13.55;9.38;;;23.50;99.90;;;;;;4913382;29;20062;-72
2022/09/07 09:27:25;;;;;;;12.80;8.88;;;23.70;99.90;;;;;;4868210;29;152635;-72
2022/09/07 09:29:51;;;;;;;16.63;9.10;;;23.50;99.90;;;;;;4941829;29;20047;-73
2022/09/07 09:32:40;;;;;;;14.27;9.02;;;23.30;99.90;;;;;;4879884;29;206176;-72
2022/09/07 09:35:14;;;;;;;14.97;8.87;;;23.30;99.90;;;;;;4888040;29;176507;-72
2022/09/07 09:37:41;;;;;;;14.43;8.95;;;23.70;99.90;;;;;;4957122;28;20061;-72
2022/09/07 09:40:49;;;;;;;12.63;7.80;;;23.70;99.90;;;;;;4946830;28;209405;-72
2022/09/07 09:43:32;;;;;;;12.98;7.95;;;23.70;99.90;;;;;;4956405;28;20055;-72
2022/09/07 09:46:00;;;;;;;13.20;8.10;;;23.80;99.90;;;;;;4915497;28;210991;-71
2022/09/07 09:48:31;;;;;;;13.00;7.95;;;23.50;99.90;;;;;;4934018;28;20463;-72
2022/09/07 09:50:59;;;;;;;12.70;8.35;;;23.30;99.90;;;;;;4915102;28;209662;-73
2022/09/07 09:53:39;;;;;;;13.18;8.00;;;23.30;99.90;;;;;;4966733;28;20492;-73
2022/09/07 09:56:06;;;;;;;14.35;8.32;;;23.20;99.90;;;;;;4915339;28;206622;-72
2022/09/07 09:58:35;;;;;;;14.05;8.00;;;23.10;99.90;;;;;;4961889;28;20081;-73
2022/09/07 10:01:23;;;;;;;16.02;8.35;;;22.90;99.90;;;;;;4918221;28;185231;-72
2022/09/07 10:03:50;;;;;;;12.73;7.40;;;23.00;99.90;;;;;;4956863;28;20062;-73
2022/09/07 10:06:18;;;;;;;14.25;8.07;;;23.30;99.90;;;;;;4927159;28;71493;-73
2022/09/07 10:09:00;;;;;;;14.35;7.40;;;23.80;99.90;;;;;;4956952;28;20061;-72
2022/09/07 10:11:44;;;;;;;15.27;6.70;;;24.20;99.90;;;;;;4910341;28;211940;-72
2022/09/07 10:14:43;;;;;;;11.77;6.25;;;24.70;99.90;;;;;;4959298;28;20051;-73
2022/09/07 10:17:10;;;;;;;11.13;6.10;;;25.30;99.90;;;;;;4892509;28;205955;-73
2022/09/07 10:19:39;;;;;;;11.02;6.00;;;25.80;99.90;;;;;;4978133;28;20194;-74
2022/09/07 10:22:44;;;;;;;11.52;5.43;;;25.90;99.90;;;;;;4930121;28;208476;-74
2022/09/07 10:25:28;;;;;;;10.68;5.10;;;26.10;99.90;;;;;;4936343;28;212232;-71
2022/09/07 10:28:12;;;;;;;9.75;4.70;;;25.70;99.90;;;;;;4986485;28;20054;-75
2022/09/07 10:31:15;;;;;;;11.18;4.82;;;25.30;99.90;;;;;;4939852;28;212932;-74
2022/09/07 10:33:51;;;;;;;8.90;4.32;;;25.00;99.90;;;;;;4897285;29;20047;-75
2022/09/07 10:36:39;;;;;;;9.73;4.43;;;25.30;99.90;;;;;;4868798;29;206680;-74
2022/09/07 10:39:11;;;;;;;9.05;4.20;;;25.50;99.90;;;;;;4894460;29;20067;-75
2022/09/07 10:42:05;;;;;;;9.55;4.47;;;25.60;99.90;;;;;;4864820;29;207908;-75
2022/09/07 10:44:56;;;;;;;9.20;4.20;;;26.20;99.90;;;;;;4925438;29;20413;-75
2022/09/07 10:47:32;;;;;;;8.57;4.30;;;26.70;99.90;;;;;;4861028;29;137300;-74
2022/09/07 10:50:14;;;;;;;9.50;4.10;;;26.90;99.30;;;;;;4874027;29;171023;-74
2022/09/07 10:53:03;;;;;;;9.52;3.97;;;26.30;99.20;;;;;;4877741;29;205646;-76
2022/09/07 10:55:38;;;;;;;8.25;3.78;;;26.10;99.60;;;;;;4848357;29;206086;-75
2022/09/07 10:58:29;;;;;;;7.97;3.50;;;26.10;99.60;;;;;;4894946;29;20199;-75
2022/09/07 11:01:14;;;;;;;7.82;3.45;;;25.90;98.50;;;;;;4875626;29;207799;-75
2022/09/07 11:03:55;;;;;;;7.95;3.72;;;26.60;99.00;;;;;;4913111;29;20044;-76
2022/09/07 11:06:28;;;;;;;8.30;3.45;;;27.30;98.90;;;;;;4857359;29;205588;-75
2022/09/07 11:09:10;;;;;;;7.88;2.90;;;27.40;98.20;;;;;;4938509;28;20050;-75
2022/09/07 11:11:41;;;;;;;7.32;2.75;;;27.40;97.70;;;;;;4952305;28;208638;-76
2022/09/07 11:14:13;;;;;;;7.80;2.90;;;27.90;97.90;;;;;;4978879;28;20050;-75
2022/09/07 11:16:52;;;;;;;8.43;3.20;;;28.60;97.70;;;;;;4945291;28;210486;-76
2022/09/07 11:19:26;;;;;;;8.07;3.10;;;29.20;95.50;;;;;;4985440;28;20070;-76
2022/09/07 11:22:06;;;;;;;7.32;2.83;;;28.80;94.80;;;;;;4952021;28;207942;-76
2022/09/07 11:24:36;;;;;;;6.63;2.75;;;28.40;95.00;;;;;;4981374;28;21385;-76
2022/09/07 11:27:27;;;;;;;7.03;2.80;;;28.30;95.00;;;;;;4925173;28;210478;-76
2022/09/07 11:30:04;;;;;;;7.95;2.90;;;28.30;94.50;;;;;;4980436;28;20050;-77
2022/09/07 11:32:36;;;;;;;7.03;2.45;;;28.00;94.10;;;;;;4911577;28;209239;-76
2022/09/07 11:35:20;;;;;;;7.35;2.40;;;28.00;94.80;;;;;;4938369;28;213287;-76
2022/09/07 11:38:02;;;;;;;9.27;2.60;;;28.00;93.70;;;;;;4985929;28;20058;-76
2022/09/07 11:41:10;;;;;;;8.73;2.53;;;28.10;93.30;;;;;;4945621;28;218968;-76
2022/09/07 11:43:45;;;;;;;7.28;2.60;;;27.80;94.10;;;;;;4988637;28;20049;-76
2022/09/07 11:46:36;;;;;;;9.40;2.75;;;27.80;94.60;;;;;;4950386;28;213144;-76
2022/09/07 11:49:05;;;;;;;6.72;2.25;;;28.30;94.10;;;;;;4978613;28;20419;-76
2022/09/07 11:51:43;;;;;;;7.78;2.47;;;28.50;94.80;;;;;;4934809;28;209829;-76
2022/09/07 11:54:18;;;;;;;6.05;2.20;;;28.80;94.10;;;;;;4984053;28;20539;-76
2022/09/07 11:56:51;;;;;;;7.95;2.20;;;29.40;93.60;;;;;;4931437;28;207522;-76
2022/09/07 11:59:26;;;;;;;6.85;2.33;;;29.40;92.00;;;;;;4979662;28;20080;-76
2022/09/07 12:02:19;;;;;;;8.07;2.60;;;29.60;92.90;;;;;;4931166;28;211710;-76
2022/09/07 12:05:12;;;;;;;7.05;2.10;;;29.30;91.70;;;;;;5000565;28;20417;-76
2022/09/07 12:07:47;;;;;;;6.60;2.25;;;28.90;92.90;;;;;;4928617;28;209298;-76
2022/09/07 12:10:27;;;;;;;8.05;2.30;;;28.60;93.10;;;;;;4937975;28;215476;-75
2022/09/07 12:13:26;;;;;;;8.15;2.67;;;28.20;92.40;;;;;;4957099;28;20508;-76
2022/09/07 12:16:01;;;;;;;6.80;2.25;;;28.20;93.10;;;;;;4935901;28;206191;-75
2022/09/07 12:18:43;;;;;;;8.13;2.20;;;28.20;93.10;;;;;;4963941;28;20055;-75
2022/09/07 12:22:06;;;;;;;6.55;2.05;;;28.20;93.10;;;;;;4930959;28;209573;-75
2022/09/07 12:24:42;;;;;;;6.20;1.90;;;28.70;93.00;;;;;;4915338;29;20064;-74
2022/09/07 12:27:30;;;;;;;6.65;1.70;;;28.90;91.20;;;;;;4863502;29;205640;-75
2022/09/07 12:29:56;;;;;;;6.30;1.50;;;29.10;92.40;;;;;;4872661;29;161200;-75
2022/09/07 12:33:03;;;;;;;8.35;1.88;;;29.50;92.40;;;;;;4922410;28;198241;-76
2022/09/07 12:35:29;;;;;;;6.07;1.58;;;30.00;90.70;;;;;;4881406;28;205805;-76
2022/09/07 12:38:16;;;;;;;5.68;1.30;;;30.10;90.30;;;;;;4933138;29;20686;-75
2022/09/07 12:41:19;;;;;;;6.03;1.50;;;30.50;89.70;;;;;;4894219;28;206593;-75
2022/09/07 12:44:03;;;;;;;6.28;1.40;;;31.00;90.10;;;;;;4911856;29;20047;-77
2022/09/07 12:46:31;;;;;;;4.68;1.20;;;31.60;88.30;;;;;;4887617;28;220912;-76
2022/09/07 12:49:19;;;;;;;6.13;1.42;;;31.90;87.90;;;;;;4912758;29;20063;-76
2022/09/07 12:52:04;;;;;;;5.97;1.48;;;32.30;85.70;;;;;;4881979;28;211881;-76
2022/09/07 12:54:47;;;;;;;5.90;1.48;;;32.40;82.70;;;;;;4949208;28;20058;-77
2022/09/07 12:57:50;;;;;;;6.05;1.40;;;32.10;82.20;;;;;;4911033;28;135129;-76
2022/09/07 13:00:19;;;;;;;6.75;1.50;;;31.90;82.50;;;;;;4898316;28;211633;-75
2022/09/07 13:03:32;;;;;;;6.57;1.30;;;31.10;83.20;;;;;;4938156;28;20051;-76
2022/09/07 13:06:06;;;;;;;6.68;1.40;;;30.80;83.40;;;;;;4864485;29;205261;-76